Terminal Aerodrome Forecast
Issued by NWS

Home | Current Version | Previous Version | Text Only | Print | Product List | Glossary On
Versions: 1 2 3 4 5 6 7 8 9 10 11 12 13 14 15 16 17 18 19 20 21 22 23 24 25 26 27 28 29 30 31 32 33 34
000
FTUS41 KOKX 040700 AAA
TAFTEB
TAF AMD
KTEB 040743Z 0408/0506 23005KT P6SM OVC010 WS020/25050KT
      TEMPO 0408/0410 6SM BR OVC007
     FM041000 25005KT 5SM BR OVC007
      TEMPO 0411/0413 3SM -RA BR
     FM041700 27006KT 5SM -RA BR BKN010 BKN050
     FM050000 28004KT 4SM -RA BR OVC008=

USA.gov is the U.S. government's official web portal to all federal, state and local government web resources and services.